Time;durP1;ratioP1;P1;durP2;ratioP2;P2;SDS_P1;SDS_P2;PMS_P1;PMS_P2;Temp;Humidity;BMP_temperature;BMP_pressure;BME280_temperature;BME280_humidity;BME280_pressure;Samples;Min_cycle;Max_cycle;Signal;HPM_P1;HPM_P2
2022/12/21 00:01:45;;;;;;;21.87;11.40;;;;;;;-1.55;86.72;98144.22;5069384;28;20196;-83
2022/12/21 00:04:15;;;;;;;17.47;11.07;;;;;;;-1.57;87.15;98123.88;5068817;28;20191;-79
2022/12/21 00:06:42;;;;;;;18.53;12.30;;;;;;;-1.43;87.39;98135.16;5069080;28;20212;-83
2022/12/21 00:09:11;;;;;;;24.17;11.83;;;;;;;-1.41;86.59;98128.41;5069022;28;20199;-83
2022/12/21 00:11:38;;;;;;;24.77;12.73;;;;;;;-1.47;86.17;98118.16;5069859;28;20187;-80
2022/12/21 00:14:06;;;;;;;21.33;12.13;;;;;;;-1.33;86.05;98131.09;5069075;28;20204;-78
2022/12/21 00:16:35;;;;;;;24.13;12.70;;;;;;;-1.26;86.15;98133.78;5068651;28;20297;-81
2022/12/21 00:19:02;;;;;;;23.63;12.83;;;;;;;-1.33;85.58;98120.91;5068772;28;20753;-81
2022/12/21 00:21:33;;;;;;;18.67;12.77;;;;;;;-1.36;85.70;98119.19;5068330;28;20185;-77
2022/12/21 00:24:00;;;;;;;18.77;11.97;;;;;;;-1.31;86.05;98111.63;5071108;28;20197;-79
2022/12/21 00:26:30;;;;;;;21.57;13.27;;;;;;;-1.28;85.71;98126.94;5068873;28;20201;-75
2022/12/21 00:28:58;;;;;;;27.47;14.30;;;;;;;-1.28;85.63;98119.34;5068627;28;20197;-75
2022/12/21 00:31:31;;;;;;;24.90;13.60;;;;;;;-1.30;85.38;98121.81;5068739;28;20574;-79
2022/12/21 00:33:58;;;;;;;25.27;12.37;;;;;;;-1.49;85.70;98096.09;5050063;28;20216;-80
2022/12/21 00:36:31;;;;;;;24.10;12.50;;;;;;;-1.52;85.40;98085.84;5079979;28;20200;-75
2022/12/21 00:38:58;;;;;;;19.57;12.87;;;;;;;-1.54;85.83;98110.38;5088175;28;20728;-80
2022/12/21 00:41:27;;;;;;;17.53;11.23;;;;;;;-1.61;86.15;98106.03;5088339;28;20228;-79
2022/12/21 00:43:55;;;;;;;20.87;11.13;;;;;;;-1.65;85.94;98098.34;5088047;28;20209;-78
2022/12/21 00:46:25;;;;;;;20.33;11.73;;;;;;;-1.66;85.57;98091.56;5069852;28;20202;-78
2022/12/21 00:48:54;;;;;;;18.83;10.90;;;;;;;-1.70;85.37;98089.78;5088249;28;20768;-83
2022/12/21 00:51:23;;;;;;;21.63;12.37;;;;;;;-1.59;84.74;98076.44;5087545;28;20217;-82
2022/12/21 00:53:53;;;;;;;21.67;11.07;;;;;;;-1.58;84.59;98083.22;5088700;28;20267;-81
2022/12/21 00:56:20;;;;;;;20.00;11.47;;;;;;;-1.57;84.07;98080.72;5069734;28;20194;-83
2022/12/21 00:58:48;;;;;;;19.77;10.60;;;;;;;-1.58;84.06;98075.59;5088341;28;20239;-80
2022/12/21 01:01:23;;;;;;;19.63;11.60;;;;;;;-1.47;84.29;98074.09;5069586;28;20266;-77
2022/12/21 01:03:53;;;;;;;18.03;11.47;;;;;;;-1.41;83.20;98074.22;5087673;28;20291;-75
2022/12/21 01:06:30;;;;;;;21.30;11.87;;;;;;;-1.47;83.42;98071.56;5088282;28;20602;-81
2022/12/21 01:08:57;;;;;;;17.87;10.80;;;;;;;-1.57;83.95;98057.88;5069831;28;20295;-77
2022/12/21 01:11:27;;;;;;;19.63;10.23;;;;;;;-1.57;84.71;98049.38;5071823;28;20312;-79
2022/12/21 01:13:55;;;;;;;20.37;10.90;;;;;;;-1.45;84.17;98039.44;5088218;28;20299;-81
2022/12/21 01:16:29;;;;;;;20.73;11.37;;;;;;;-1.41;83.34;98043.72;5069498;28;20728;-78
2022/12/21 01:18:59;;;;;;;19.90;10.70;;;;;;;-1.41;83.40;98051.34;5087086;28;20216;-78
2022/12/21 01:21:29;;;;;;;16.40;9.63;;;;;;;-1.61;83.48;98037.47;5087099;28;20227;-78
2022/12/21 01:23:57;;;;;;;19.13;11.80;;;;;;;-1.53;84.13;98056.22;5087888;28;20199;-81
2022/12/21 01:26:25;;;;;;;27.20;11.80;;;;;;;-1.56;83.90;98046.88;5086851;28;20188;-83
2022/12/21 01:28:52;;;;;;;24.50;12.47;;;;;;;-1.47;83.55;98043.63;5087780;28;20206;-82
2022/12/21 01:31:19;;;;;;;18.13;11.53;;;;;;;-1.52;83.60;98037.59;5069420;28;20200;-81
2022/12/21 01:33:46;;;;;;;20.17;11.43;;;;;;;-1.50;83.46;98043.56;5069780;28;20593;-82
2022/12/21 01:36:16;;;;;;;19.10;11.70;;;;;;;-1.51;83.21;98041.88;5068952;28;20210;-79
2022/12/21 01:38:44;;;;;;;23.47;10.97;;;;;;;-1.56;83.59;98035.84;5086958;28;20211;-82
2022/12/21 01:41:17;;;;;;;18.10;11.43;;;;;;;-1.61;83.38;98037.47;5087268;28;20619;-83
2022/12/21 01:43:53;;;;;;;20.87;12.27;;;;;;;-1.60;83.77;98034.09;5087044;28;20276;-82
2022/12/21 01:46:26;;;;;;;20.17;11.90;;;;;;;-1.67;83.90;98033.97;5088369;28;20198;-80
2022/12/21 01:49:17;;;;;;;23.20;13.53;;;;;;;-1.88;84.24;98027.69;5068963;28;20272;-76
2022/12/21 01:51:49;;;;;;;21.03;12.17;;;;;;;-1.86;84.73;98036.19;5056485;28;20201;-83
2022/12/21 01:54:32;;;;;;;22.07;13.30;;;;;;;-1.95;84.65;98025.84;5087375;28;20187;-81
2022/12/21 01:57:03;;;;;;;28.53;12.07;;;;;;;-2.03;85.51;98013.03;5086410;28;20547;-84
2022/12/21 01:59:35;;;;;;;22.43;12.13;;;;;;;-1.98;85.62;98021.56;5069093;28;20252;-85
2022/12/21 02:02:11;;;;;;;16.97;11.40;;;;;;;-2.03;85.75;98018.09;5085847;28;20277;-83
2022/12/21 02:04:40;;;;;;;18.47;11.10;;;;;;;-2.13;86.09;98012.81;5086783;28;20206;-81
2022/12/21 02:07:07;;;;;;;21.50;12.10;;;;;;;-2.08;86.85;98009.53;5068884;28;20201;-81
2022/12/21 02:09:36;;;;;;;20.00;10.77;;;;;;;-2.09;86.83;98012.91;5068183;28;20645;-79
2022/12/21 02:12:06;;;;;;;20.10;12.37;;;;;;;-2.18;87.27;98006.78;5087404;28;20189;-80
2022/12/21 02:14:41;;;;;;;25.47;12.00;;;;;;;-2.13;87.21;98006.06;5068287;28;20196;-81
2022/12/21 02:17:14;;;;;;;17.87;10.63;;;;;;;-2.12;87.39;98004.41;5086661;28;20235;-82
2022/12/21 02:19:43;;;;;;;19.17;10.83;;;;;;;-2.19;87.15;97995.81;5086689;28;20257;-79
2022/12/21 02:22:46;;;;;;;20.70;11.57;;;;;;;-2.26;87.18;97983.81;5068264;28;20286;-81
2022/12/21 02:25:35;;;;;;;20.83;10.33;;;;;;;-2.17;87.17;97993.28;5087764;28;20190;-77
2022/12/21 02:28:20;;;;;;;19.33;10.53;;;;;;;-2.25;87.33;97995.69;5086943;28;20240;-74
2022/12/21 02:30:56;;;;;;;20.00;11.37;;;;;;;-2.23;87.23;97994.03;5086286;28;20198;-76
2022/12/21 02:34:01;;;;;;;17.97;10.13;;;;;;;-2.23;87.51;97990.63;5086990;28;20652;-77
2022/12/21 02:36:37;;;;;;;19.47;11.73;;;;;;;-2.28;87.59;97979.53;4968608;28;20299;-75
2022/12/21 02:39:16;;;;;;;17.67;10.10;;;;;;;-2.27;88.22;97977.06;5055042;28;20689;-79
2022/12/21 02:42:01;;;;;;;20.27;11.23;;;;;;;-2.21;88.02;97968.69;5069263;28;20230;-79
2022/12/21 02:44:40;;;;;;;18.83;11.67;;;;;;;-2.24;88.15;97971.16;5068862;28;20201;-82
2022/12/21 02:47:28;;;;;;;17.87;10.60;;;;;;;-2.17;88.52;97962.84;5069091;28;20579;-77
2022/12/21 02:50:03;;;;;;;15.63;9.27;;;;;;;-2.15;87.75;97966.28;5086350;28;20246;-81
2022/12/21 02:52:36;;;;;;;21.73;10.60;;;;;;;-2.16;87.74;97969.63;5086672;28;20202;-84
2022/12/21 02:55:04;;;;;;;22.03;10.87;;;;;;;-2.40;87.91;97934.53;5068392;28;20237;-79
2022/12/21 02:57:38;;;;;;;21.03;12.30;;;;;;;-2.22;87.92;97967.84;5068139;28;20695;-76
2022/12/21 03:00:18;;;;;;;20.77;12.27;;;;;;;-2.26;87.86;97950.84;5070960;28;20226;-81
2022/12/21 03:06:39;;;;;;;22.33;11.07;;;;;;;-2.32;87.32;97953.28;5067727;28;20715;-82
2022/12/21 03:09:44;;;;;;;15.00;10.27;;;;;;;-2.31;87.85;97957.53;5068476;28;20282;-77
2022/12/21 03:12:41;;;;;;;14.83;8.13;;;;;;;-2.30;87.39;97954.16;5068339;28;20193;-84
2022/12/21 03:15:46;;;;;;;13.53;8.10;;;;;;;-2.26;87.15;97943.25;5071387;28;20711;-80
2022/12/21 03:18:32;;;;;;;11.30;7.13;;;;;;;-2.29;86.96;97938.13;5089899;28;20689;-79
2022/12/21 03:21:05;;;;;;;13.27;8.17;;;;;;;-2.23;86.83;97948.38;5092191;28;20196;-78
2022/12/21 03:23:39;;;;;;;15.20;8.30;;;;;;;-2.26;87.04;97938.16;5089935;28;20198;-80
2022/12/21 03:26:28;;;;;;;13.80;8.83;;;;;;;-2.25;86.79;97939.03;5090078;28;20200;-81
2022/12/21 03:28:58;;;;;;;13.13;7.57;;;;;;;-2.27;86.69;97936.47;5089546;28;20725;-83
2022/12/21 03:31:30;;;;;;;14.97;8.03;;;;;;;-2.22;86.63;97939.06;5089210;28;20183;-77
2022/12/21 03:34:05;;;;;;;14.70;7.47;;;;;;;-2.22;86.35;97939.06;5090120;28;20572;-78
2022/12/21 03:36:42;;;;;;;13.33;6.83;;;;;;;-2.47;86.06;97897.19;5089751;28;20207;-82
2022/12/21 03:39:50;;;;;;;13.13;7.77;;;;;;;-2.18;86.06;97931.53;5089493;28;20625;-82
2022/12/21 03:42:35;;;;;;;11.90;7.40;;;;;;;-2.25;86.38;97934.81;5088648;28;20195;-78
2022/12/21 03:45:08;;;;;;;12.53;7.23;;;;;;;-2.36;86.48;97926.16;5089083;28;20194;-83
2022/12/21 03:47:49;;;;;;;17.20;8.03;;;;;;;-2.30;87.22;97948.22;5090100;28;20251;-80
2022/12/21 03:50:21;;;;;;;10.90;6.93;;;;;;;-2.28;87.26;97934.75;5089179;28;20201;-81
2022/12/21 03:53:25;;;;;;;16.63;6.87;;;;;;;-2.34;87.08;97934.63;5089296;28;20207;-83
2022/12/21 03:55:56;;;;;;;9.73;5.93;;;;;;;-2.46;87.58;97924.28;5089810;28;20200;-80
2022/12/21 03:58:24;;;;;;;11.83;6.43;;;;;;;-2.34;87.77;97934.63;5088824;28;20261;-84
2022/12/21 04:01:08;;;;;;;12.20;6.60;;;;;;;-2.37;87.68;97937.09;5089171;28;20536;-80
2022/12/21 04:03:41;;;;;;;12.43;5.97;;;;;;;-2.50;88.15;97925.03;5088772;28;20198;-81
2022/12/21 04:06:19;;;;;;;9.13;5.93;;;;;;;-2.43;88.39;97943.75;5070661;28;20190;-84
2022/12/21 04:08:47;;;;;;;10.73;5.83;;;;;;;-2.39;88.00;97936.22;5089396;28;20219;-83
2022/12/21 04:14:00;;;;;;;13.40;6.13;;;;;;;-2.34;88.57;97937.19;5090291;28;20248;-84
2022/12/21 04:16:27;;;;;;;10.43;6.00;;;;;;;-2.30;87.82;97931.34;5091013;28;20196;-82
2022/12/21 04:21:40;;;;;;;10.37;6.07;;;;;;;-2.34;87.78;97904.22;5089233;28;20199;-82
2022/12/21 04:29:39;;;;;;;13.43;7.50;;;;;;;-2.22;87.66;97919.63;5073539;28;20649;-81
2022/12/21 04:32:06;;;;;;;11.33;7.97;;;;;;;-2.29;87.79;97920.38;5088466;28;20188;-83
2022/12/21 04:34:33;;;;;;;12.77;7.60;;;;;;;-2.16;87.25;97929.91;5090218;28;20193;-82
2022/12/21 04:39:45;;;;;;;14.50;9.07;;;;;;;-2.10;88.23;97927.47;5088033;28;20226;-79
2022/12/21 04:42:12;;;;;;;14.83;8.23;;;;;;;-2.12;87.67;97920.69;5088856;28;20550;-80
2022/12/21 04:44:39;;;;;;;16.87;8.13;;;;;;;-2.01;87.78;97924.22;5089055;28;20291;-79
2022/12/21 04:47:06;;;;;;;18.73;9.97;;;;;;;-2.01;87.63;97926.78;5089015;28;20198;-78
2022/12/21 04:49:33;;;;;;;13.13;7.33;;;;;;;-2.07;87.65;97917.38;5076107;28;20614;-81
2022/12/21 04:52:04;;;;;;;13.77;8.30;;;;;;;-2.00;87.29;97923.41;5085536;28;20196;-82
2022/12/21 04:54:31;;;;;;;13.90;8.67;;;;;;;-2.09;87.31;97911.44;5087847;28;20613;-79
2022/12/21 04:56:58;;;;;;;15.13;8.63;;;;;;;-2.22;87.62;97899.34;5090876;28;20206;-81
2022/12/21 04:59:25;;;;;;;13.20;8.30;;;;;;;-2.16;87.20;97919.75;5091171;28;20317;-78
2022/12/21 05:01:52;;;;;;;15.57;8.97;;;;;;;-2.17;87.63;97915.50;5090258;28;20217;-79
2022/12/21 05:04:20;;;;;;;16.60;8.90;;;;;;;-2.08;87.78;97913.13;5064118;28;20290;-80
2022/12/21 05:06:47;;;;;;;17.67;9.10;;;;;;;-2.78;87.25;97793.56;5074440;28;20204;-80
2022/12/21 05:09:14;;;;;;;14.90;8.67;;;;;;;-2.14;87.24;97902.88;5068377;28;20211;-80
2022/12/21 05:11:42;;;;;;;14.73;7.93;;;;;;;-2.09;86.89;97901.28;5067131;28;20753;-83
2022/12/21 05:14:09;;;;;;;14.20;8.93;;;;;;;-1.96;86.77;97908.25;5068280;28;20286;-80
2022/12/21 05:16:38;;;;;;;21.87;10.83;;;;;;;-1.90;86.62;97905.84;5067354;28;20195;-74
2022/12/21 05:19:05;;;;;;;24.67;10.67;;;;;;;-1.80;86.00;97900.09;5049244;28;20229;-75
2022/12/21 05:21:32;;;;;;;20.30;11.57;;;;;;;-1.65;85.99;97891.84;5068062;28;20794;-81
2022/12/21 05:23:59;;;;;;;30.43;15.13;;;;;;;-1.71;84.79;97884.97;5067532;28;20197;-81
2022/12/21 05:26:26;;;;;;;31.33;16.77;;;;;;;-1.78;85.18;97882.31;5067572;28;20734;-80
2022/12/21 05:28:53;;;;;;;28.43;15.17;;;;;;;-1.92;84.27;97855.88;5049052;28;20609;-81
2022/12/21 05:31:19;;;;;;;25.47;14.70;;;;;;;-1.96;84.25;97877.78;5067569;28;20593;-78
2022/12/21 05:33:47;;;;;;;18.27;10.80;;;;;;;-2.01;84.25;97896.31;5066905;28;20226;-80
2022/12/21 05:36:16;;;;;;;16.87;10.37;;;;;;;-2.18;84.62;97900.25;5067430;28;20201;-81
2022/12/21 05:38:44;;;;;;;19.67;10.37;;;;;;;-2.21;84.78;97896.00;5068301;28;20235;-78
2022/12/21 05:41:13;;;;;;;19.47;9.37;;;;;;;-2.24;84.81;97890.84;5068764;28;20743;-77
2022/12/21 05:43:40;;;;;;;23.63;9.10;;;;;;;-2.28;84.52;97891.63;5069218;28;20245;-78
2022/12/21 05:46:09;;;;;;;17.90;10.37;;;;;;;-2.52;84.40;97848.97;5067392;28;20227;-78
2022/12/21 05:48:37;;;;;;;15.53;9.03;;;;;;;-2.30;84.34;97865.38;5068400;28;20200;-78
2022/12/21 05:51:11;;;;;;;15.60;8.80;;;;;;;-2.42;84.26;97859.25;5049265;28;20283;-80
2022/12/21 05:53:44;;;;;;;14.57;9.43;;;;;;;-2.37;83.88;97872.88;5067719;28;20235;-81
2022/12/21 05:56:12;;;;;;;13.77;8.87;;;;;;;-2.14;83.88;97887.66;5066573;28;20207;-77
2022/12/21 05:58:40;;;;;;;16.43;10.27;;;;;;;-2.16;83.52;97873.22;5066285;28;20230;-77
2022/12/21 06:01:09;;;;;;;20.57;11.37;;;;;;;-2.14;83.68;97874.13;5066741;28;20638;-79
2022/12/21 06:03:38;;;;;;;22.63;12.57;;;;;;;-2.25;82.86;97866.34;5066975;28;20187;-80
2022/12/21 06:06:07;;;;;;;23.07;13.03;;;;;;;-2.14;82.53;97871.59;5068099;28;20207;-79
2022/12/21 06:08:35;;;;;;;28.33;14.30;;;;;;;-2.25;82.47;97858.72;5066293;28;20205;-79
2022/12/21 06:11:10;;;;;;;29.57;17.13;;;;;;;-2.20;82.83;97853.72;5066915;28;20720;-77
2022/12/21 06:13:37;;;;;;;26.97;15.80;;;;;;;-2.21;82.28;97885.84;5066718;28;20675;-82
2022/12/21 06:16:12;;;;;;;25.33;16.73;;;;;;;-2.07;82.03;97873.38;5048573;28;20213;-78
2022/12/21 06:18:40;;;;;;;27.90;15.37;;;;;;;-2.02;82.47;97857.41;5049512;28;20196;-79
2022/12/21 06:21:09;;;;;;;22.00;12.97;;;;;;;-1.94;81.50;97866.00;5033140;28;20196;-77
2022/12/21 06:23:38;;;;;;;19.33;11.90;;;;;;;-1.97;81.75;97867.63;5067588;28;20224;-80
2022/12/21 06:26:07;;;;;;;20.40;12.87;;;;;;;-2.01;81.89;97869.28;5065933;28;20193;-75
2022/12/21 06:28:34;;;;;;;27.33;16.43;;;;;;;-1.96;81.66;97862.56;5066552;28;20726;-76
2022/12/21 06:31:10;;;;;;;28.60;15.83;;;;;;;-2.11;80.92;97875.03;5066361;28;20264;-74
2022/12/21 06:33:37;;;;;;;21.70;12.93;;;;;;;-2.19;81.55;97874.06;5066213;28;20227;-76
2022/12/21 06:36:06;;;;;;;21.17;12.43;;;;;;;-2.26;81.68;97874.75;5066297;28;20236;-78
2022/12/21 06:38:33;;;;;;;21.83;12.77;;;;;;;-2.47;81.79;97834.66;5065999;28;20311;-79
2022/12/21 06:41:02;;;;;;;17.10;9.70;;;;;;;-2.33;81.72;97869.56;5066419;28;20266;-76
2022/12/21 06:43:31;;;;;;;15.73;9.47;;;;;;;-2.28;81.95;97888.22;5066076;28;20206;-77
2022/12/21 06:46:00;;;;;;;20.10;11.00;;;;;;;-2.84;82.34;97794.28;5066752;28;20737;-77
2022/12/21 06:48:29;;;;;;;44.23;20.23;;;;;;;-2.30;82.95;97869.59;5067871;28;20217;-79
2022/12/21 06:50:58;;;;;;;22.00;13.17;;;;;;;-2.06;82.92;97859.88;5072792;28;20197;-79
2022/12/21 06:53:27;;;;;;;26.37;12.80;;;;;;;-1.82;83.06;97861.13;5071519;28;20183;-84
2022/12/21 06:56:06;;;;;;;29.63;16.77;;;;;;;-1.73;81.70;97845.16;5070107;28;20416;-83
2022/12/21 06:58:41;;;;;;;23.20;12.17;;;;;;;-1.64;81.68;97845.31;5070887;28;20183;-83
2022/12/21 07:01:11;;;;;;;32.37;11.97;;;;;;;-1.30;81.06;97857.63;5071804;28;20219;-80
2022/12/21 07:03:40;;;;;;;19.03;11.03;;;;;;;-1.17;81.17;97856.09;5069912;28;20198;-80
2022/12/21 07:06:12;;;;;;;14.67;11.40;;;;;;;-1.13;79.67;97843.47;5051838;28;20572;-79
2022/12/21 07:08:39;;;;;;;20.83;10.60;;;;;;;-1.01;80.06;97841.06;5069256;28;20226;-79
2022/12/21 07:11:09;;;;;;;19.23;10.73;;;;;;;-1.09;79.93;97844.34;5069936;28;20248;-81
2022/12/21 07:13:37;;;;;;;16.83;10.50;;;;;;;-1.02;80.04;97833.44;5068956;28;20274;-83
2022/12/21 07:16:05;;;;;;;19.53;10.97;;;;;;;-1.06;80.08;97844.41;5070002;28;20192;-82
2022/12/21 07:18:34;;;;;;;19.30;10.63;;;;;;;-1.02;80.61;97838.50;5051124;28;20196;-83
2022/12/21 07:21:05;;;;;;;17.97;11.00;;;;;;;-1.11;80.84;97851.09;5070540;28;20228;-76
2022/12/21 07:23:34;;;;;;;17.70;9.73;;;;;;;-0.93;80.47;97851.34;5070294;28;20204;-78
2022/12/21 07:26:05;;;;;;;17.73;9.93;;;;;;;-1.01;81.60;97858.03;5070608;28;20199;-81
2022/12/21 07:28:35;;;;;;;15.67;10.40;;;;;;;-0.99;81.27;97859.72;5070551;28;20199;-78
2022/12/21 07:31:07;;;;;;;20.57;11.80;;;;;;;-1.08;81.86;97829.16;5069058;28;20655;-77
2022/12/21 07:33:36;;;;;;;17.13;10.80;;;;;;;-0.75;82.67;97849.00;5051924;28;20196;-76
2022/12/21 07:36:05;;;;;;;16.63;10.50;;;;;;;-0.55;82.13;97842.44;5068740;28;20213;-81
2022/12/21 07:38:34;;;;;;;15.93;9.97;;;;;;;-0.37;81.71;97836.69;5069121;28;20199;-78
2022/12/21 07:41:05;;;;;;;20.30;10.87;;;;;;;-0.21;80.39;97824.13;5069116;28;20233;-83
2022/12/21 07:43:34;;;;;;;21.30;12.33;;;;;;;0.01;80.87;97842.97;5069177;28;20673;-80
2022/12/21 07:46:32;;;;;;;19.83;12.10;;;;;;;0.10;80.04;97839.66;5025510;28;20246;-81
2022/12/21 07:49:03;;;;;;;17.57;11.67;;;;;;;0.31;80.22;97829.63;5051028;28;20193;-82
2022/12/21 07:51:30;;;;;;;16.90;11.67;;;;;;;0.44;79.38;97826.28;5069150;28;20265;-82
2022/12/21 07:53:57;;;;;;;25.13;12.87;;;;;;;0.35;78.27;97818.59;5069086;28;20227;-81
2022/12/21 07:56:24;;;;;;;18.13;13.07;;;;;;;0.61;77.84;97835.75;5034237;28;20288;-82
2022/12/21 07:58:51;;;;;;;25.60;14.20;;;;;;;0.68;77.22;97834.94;5068829;28;20192;-84
2022/12/21 08:01:19;;;;;;;33.17;16.90;;;;;;;0.86;78.05;97836.75;5067591;28;20668;-82
2022/12/21 08:03:47;;;;;;;35.97;17.47;;;;;;;0.76;76.91;97827.34;5051098;28;20201;-82
2022/12/21 08:06:15;;;;;;;32.80;17.00;;;;;;;1.06;77.13;97832.56;5067942;28;20288;-82
2022/12/21 08:08:42;;;;;;;26.30;15.80;;;;;;;1.10;76.30;97830.88;5068597;28;20203;-82
2022/12/21 08:11:17;;;;;;;25.10;13.90;;;;;;;1.14;76.73;97828.34;5068133;28;20189;-84
2022/12/21 08:13:45;;;;;;;28.17;16.00;;;;;;;1.23;76.07;97818.19;5068048;28;20295;-81
2022/12/21 08:16:13;;;;;;;31.43;15.90;;;;;;;1.41;75.29;97827.56;5068819;28;20623;-83
2022/12/21 08:18:41;;;;;;;33.53;16.90;;;;;;;1.58;75.01;97820.81;5049842;28;20243;-82
2022/12/21 08:21:08;;;;;;;30.03;16.00;;;;;;;1.40;74.87;97787.63;5068147;28;20233;-81
2022/12/21 08:23:35;;;;;;;30.27;16.30;;;;;;;1.78;73.66;97818.28;5067147;28;20197;-82
2022/12/21 08:26:03;;;;;;;24.63;13.90;;;;;;;1.76;75.15;97825.09;5068024;28;20759;-83
2022/12/21 08:28:31;;;;;;;21.10;12.00;;;;;;;1.88;73.51;97815.75;5067927;28;20193;-83
2022/12/21 08:31:08;;;;;;;24.33;13.20;;;;;;;2.02;73.26;97815.75;5033591;28;20223;-80
2022/12/21 08:33:36;;;;;;;20.63;11.63;;;;;;;2.16;72.49;97821.72;5068037;28;20213;-83
2022/12/21 08:36:09;;;;;;;20.80;12.67;;;;;;;2.01;71.94;97816.59;5067138;28;20223;-80
2022/12/21 08:38:36;;;;;;;19.83;12.50;;;;;;;2.17;72.41;97813.19;5049983;28;20189;-81
2022/12/21 08:41:23;;;;;;;27.93;15.17;;;;;;;2.19;72.47;97798.69;5048533;28;20336;-84
2022/12/21 08:43:50;;;;;;;28.10;15.37;;;;;;;2.21;72.49;97802.97;5067509;28;20262;-81
2022/12/21 08:46:17;;;;;;;22.80;15.53;;;;;;;2.32;72.09;97802.94;5067621;28;20201;-80
2022/12/21 08:48:44;;;;;;;24.10;15.00;;;;;;;2.42;70.97;97789.31;5067421;28;20664;-82
2022/12/21 08:51:11;;;;;;;24.43;14.77;;;;;;;2.57;71.64;97799.50;5067907;28;20185;-82
2022/12/21 08:53:38;;;;;;;19.77;12.23;;;;;;;2.07;70.89;97776.59;5066543;28;20205;-80
2022/12/21 08:56:05;;;;;;;25.30;14.07;;;;;;;2.21;71.09;97784.22;5067667;28;20219;-83
2022/12/21 08:58:33;;;;;;;19.53;12.50;;;;;;;2.02;71.11;97742.53;5049312;28;20186;-82
2022/12/21 09:01:00;;;;;;;27.20;13.10;;;;;;;2.42;71.50;97779.09;5068227;28;20212;-83
2022/12/21 09:03:27;;;;;;;16.50;10.30;;;;;;;2.48;70.60;97773.94;5067488;28;20189;-82
2022/12/21 09:05:59;;;;;;;21.30;11.93;;;;;;;2.57;71.10;97756.06;5066975;28;20295;-82
2022/12/21 09:08:35;;;;;;;17.47;11.57;;;;;;;2.85;69.65;97770.44;5067794;28;20296;-84
2022/12/21 09:11:07;;;;;;;17.63;11.93;;;;;;;2.85;69.61;97746.56;5066497;28;20248;-82
2022/12/21 09:13:35;;;;;;;19.17;10.50;;;;;;;2.76;69.33;97721.84;5067740;28;20187;-77
2022/12/21 09:16:10;;;;;;;16.50;10.57;;;;;;;3.12;69.38;97760.06;5049061;28;20280;-82
2022/12/21 09:18:37;;;;;;;17.77;9.43;;;;;;;3.19;69.04;97735.31;5066955;28;20188;-82
2022/12/21 09:21:04;;;;;;;18.60;11.63;;;;;;;3.37;68.92;97734.34;5067230;28;20221;-82
2022/12/21 09:23:31;;;;;;;18.90;11.83;;;;;;;3.55;68.18;97735.06;5066830;28;20216;-82
2022/12/21 09:25:58;;;;;;;22.00;11.50;;;;;;;3.56;67.78;97733.34;5068064;28;20197;-76
2022/12/21 09:28:24;;;;;;;16.60;11.67;;;;;;;3.67;67.20;97724.72;5066803;28;20193;-78
2022/12/21 09:30:53;;;;;;;21.87;10.50;;;;;;;3.78;67.06;97722.06;5067999;28;20281;-77
2022/12/21 09:33:23;;;;;;;14.13;9.07;;;;;;;3.85;67.68;97716.06;5067379;28;20231;-76
2022/12/21 09:35:52;;;;;;;13.03;7.47;;;;;;;3.79;66.00;97719.50;5049182;28;20197;-78
2022/12/21 09:38:19;;;;;;;16.87;8.03;;;;;;;3.87;66.79;97702.38;5066704;28;20199;-78
2022/12/21 09:40:46;;;;;;;13.23;8.27;;;;;;;4.07;67.44;97707.28;5065977;28;20711;-82
2022/12/21 09:43:55;;;;;;;18.53;8.50;;;;;;;4.09;67.16;97708.13;5066734;28;20229;-76
2022/12/21 09:46:22;;;;;;;13.17;9.27;;;;;;;4.17;66.73;97710.59;5065862;28;20656;-81
2022/12/21 09:48:57;;;;;;;11.30;7.87;;;;;;;4.25;66.89;97704.53;5066832;28;20703;-81
2022/12/21 09:51:30;;;;;;;15.90;8.37;;;;;;;4.44;67.75;97706.06;5066536;28;20304;-78
2022/12/21 09:54:04;;;;;;;16.13;8.27;;;;;;;4.35;66.22;97706.13;5065502;28;20255;-81
2022/12/21 09:56:31;;;;;;;12.67;8.50;;;;;;;4.31;66.15;97696.78;5066349;28;20203;-78
2022/12/21 09:59:02;;;;;;;15.73;8.90;;;;;;;4.55;66.73;97704.22;5065294;28;20200;-79
2022/12/21 10:01:29;;;;;;;18.57;9.83;;;;;;;4.73;65.47;97701.44;5066141;28;20233;-79
2022/12/21 10:04:14;;;;;;;18.43;9.50;;;;;;;4.68;64.74;97695.50;5065346;28;20247;-80
2022/12/21 10:07:13;;;;;;;20.80;9.87;;;;;;;4.75;64.33;97686.00;5065130;28;20308;-77
2022/12/21 10:09:57;;;;;;;15.23;9.57;;;;;;;4.75;65.44;97696.28;5066504;28;20219;-75
2022/12/21 10:12:41;;;;;;;13.70;8.80;;;;;;;4.74;64.52;97694.59;5065276;28;20201;-78
2022/12/21 10:15:26;;;;;;;15.83;7.40;;;;;;;4.75;65.38;97675.75;5066303;28;20205;-78
2022/12/21 10:18:02;;;;;;;14.47;7.03;;;;;;;4.66;64.96;97675.84;5066624;28;20617;-77
2022/12/21 10:20:48;;;;;;;10.37;6.90;;;;;;;4.77;64.62;97674.88;5065420;28;20221;-81
2022/12/21 10:23:24;;;;;;;10.40;6.77;;;;;;;4.71;63.98;97661.28;5067921;28;20290;-81
2022/12/21 10:25:56;;;;;;;13.13;7.53;;;;;;;4.81;64.93;97656.00;5069599;28;20677;-76
2022/12/21 10:28:26;;;;;;;11.60;7.90;;;;;;;4.90;64.11;97653.28;5070060;28;20191;-79
2022/12/21 10:31:08;;;;;;;10.50;7.30;;;;;;;4.99;63.12;97636.09;5070558;28;20200;-77
2022/12/21 10:33:39;;;;;;;13.20;7.87;;;;;;;4.99;63.65;97644.63;5069171;28;20269;-78
2022/12/21 10:36:15;;;;;;;12.30;7.43;;;;;;;5.12;62.45;97655.56;5070417;28;20592;-78
2022/12/21 10:38:42;;;;;;;10.53;7.33;;;;;;;5.23;61.95;97643.44;5069396;28;20271;-79
2022/12/21 10:41:18;;;;;;;12.60;7.50;;;;;;;5.33;61.21;97637.28;5069864;28;20235;-77
2022/12/21 10:43:48;;;;;;;9.67;6.67;;;;;;;5.37;60.54;97626.94;5069978;28;20194;-79
2022/12/21 10:46:20;;;;;;;6.63;4.70;;;;;;;5.17;59.85;97635.81;5069172;28;20194;-79
2022/12/21 10:48:51;;;;;;;6.40;5.27;;;;;;;5.31;60.19;97634.75;5070195;28;20218;-79
2022/12/21 10:51:27;;;;;;;9.97;5.50;;;;;;;5.20;59.82;97612.66;5068807;28;20227;-78
2022/12/21 10:54:04;;;;;;;9.33;6.27;;;;;;;5.18;60.50;97622.09;5051875;28;20198;-76
2022/12/21 10:56:35;;;;;;;9.00;6.03;;;;;;;5.15;60.72;97611.91;5069771;28;20802;-78
2022/12/21 10:59:12;;;;;;;10.70;5.50;;;;;;;5.40;60.25;97621.75;5070062;28;20629;-79
2022/12/21 11:01:39;;;;;;;9.13;5.47;;;;;;;5.36;59.34;97614.97;5070393;28;20662;-80
2022/12/21 11:04:15;;;;;;;7.67;5.23;;;;;;;5.50;59.66;97607.88;5069028;28;20716;-82
2022/12/21 11:06:55;;;;;;;12.63;5.80;;;;;;;5.64;58.89;97608.50;5069967;28;20582;-83
2022/12/21 11:09:39;;;;;;;12.83;7.17;;;;;;;5.79;59.60;97602.22;5069027;28;20284;-83
2022/12/21 11:12:23;;;;;;;11.40;7.37;;;;;;;5.85;59.83;97607.31;5068853;28;20207;-82
2022/12/21 11:14:55;;;;;;;12.40;7.00;;;;;;;5.68;58.70;97575.88;5070106;28;20190;-83
2022/12/21 11:17:28;;;;;;;9.17;5.67;;;;;;;5.70;59.49;97594.69;5051335;28;20590;-79
2022/12/21 11:20:14;;;;;;;11.10;6.97;;;;;;;5.75;59.22;97586.03;5069653;28;20236;-79
2022/12/21 11:22:45;;;;;;;12.73;7.87;;;;;;;5.46;59.25;97533.50;5069045;28;20255;-80
2022/12/21 11:25:31;;;;;;;10.43;6.67;;;;;;;5.98;59.27;97588.19;5068488;28;20228;-78
2022/12/21 11:28:03;;;;;;;10.97;7.00;;;;;;;6.07;58.07;97585.47;5069294;28;20202;-76
2022/12/21 11:30:35;;;;;;;11.73;7.23;;;;;;;5.64;59.67;97575.09;5068466;28;20299;-83
2022/12/21 11:33:02;;;;;;;15.30;9.80;;;;;;;5.91;59.03;97578.06;5069008;28;20185;-77
2022/12/21 11:35:34;;;;;;;13.93;8.60;;;;;;;5.86;59.30;97580.72;5068508;28;20694;-82
2022/12/21 11:38:11;;;;;;;14.63;9.13;;;;;;;5.87;59.36;97561.88;5068205;28;20206;-84
2022/12/21 11:40:38;;;;;;;22.47;11.40;;;;;;;5.89;60.04;97554.97;5068871;28;20230;-82
2022/12/21 11:43:15;;;;;;;20.43;8.80;;;;;;;5.97;60.16;97562.53;5067474;28;20209;-79
2022/12/21 11:46:09;;;;;;;13.57;8.53;;;;;;;6.27;58.20;97574.75;5069164;28;20204;-78
2022/12/21 11:49:08;;;;;;;15.40;7.73;;;;;;;6.25;59.33;97545.66;5068402;28;20197;-82
2022/12/21 11:51:48;;;;;;;17.87;7.73;;;;;;;6.14;58.91;97553.59;5067304;28;20209;-83
2022/12/21 11:54:30;;;;;;;12.73;7.20;;;;;;;6.10;59.53;97556.28;5069027;28;20232;-76
2022/12/21 11:57:23;;;;;;;13.33;7.80;;;;;;;6.06;60.37;97560.63;5067930;28;20701;-80
2022/12/21 11:59:56;;;;;;;10.67;6.67;;;;;;;6.22;59.86;97548.31;5067774;28;20208;-81
2022/12/21 12:02:56;;;;;;;16.90;7.73;;;;;;;6.38;59.07;97542.81;5068596;28;20194;-78
2022/12/21 12:05:42;;;;;;;14.93;7.43;;;;;;;6.47;59.25;97546.94;5067766;28;20230;-79
2022/12/21 12:08:35;;;;;;;8.83;5.83;;;;;;;6.43;59.28;97548.69;5050621;28;20264;-78